x

Sombrero Key, Fl (smkf1) Weather Station

6:00am - Sat 31st Jan 2015 All times are CST. -5 hours from GMT.

  • Wind
    21mph, 23mph gusts
  • Air Temp 64°f
  • Sea Pressure 1021.1mb
  • Sombrero Key, Fl
  • Sombrero Key, Fl

More Historic Weather Station data

Upgrade to MSW Pro to gain access to the past 30 days of data for over 8000 Wavebouys and Weather Stations around the globe.

Join Pro

Comparision Forecast

View Surf forecast
   
Sat 01/31 6:00am 21 23 mph 1021.1mb 64f
5:00am 20 22 mph 1020.8mb 64f
4:00am 15 17 mph 1021mb 65f
3:00am 20 21 mph 1020.9mb 65f
2:00am 17 21 mph 1021.4mb 65f
1:00am 15 16 mph 1021.7mb 65f
12:00am 14 15 mph 1021.9mb 65f
Fri 01/30 11:00pm 14
mph
1021.9mb 66f
10:00pm 16 17 mph 1022.1mb 66f
9:00pm 18 21 mph 1021.9mb 66f
8:00pm 16 20 mph 1021.7mb 67f
7:00pm 15 17 mph 1021.5mb 67f
6:00pm 14 15 mph 1021.5mb 67f
5:00pm 16
mph
1021.4mb 67f
4:00pm 14 15 mph 1021.3mb 67f
3:00pm 14 15 mph 1021.4mb 66f
2:00pm 15 16 mph 1021.9mb 67f
1:00pm 11 13 mph 1022.5mb 67f
12:00pm 11 13 mph 1023.2mb 67f
11:00am 13
mph
1023.9mb 67f
10:00am 16 17 mph 1024mb 66f
9:00am 18 20 mph 1023.4mb 66f
8:00am 20 21 mph 1022.6mb 65f
7:00am 17 18 mph 1022.4mb 65f
6:00am 18 21 mph 1021.7mb 65f
5:00am 16 17 mph 1021.1mb 65f
4:00am 14 16 mph 1021.1mb 65f
3:00am 17 18 mph 1021.5mb 65f
2:00am 16 17 mph 1022mb 67f
1:00am 13 14 mph 1022.6mb 66f
12:00am 15 17 mph 1023.1mb 66f
Thu 01/29 11:00pm 16 17 mph 1023.5mb 67f
10:00pm 17 18 mph 1023.2mb 67f
9:00pm 20 21 mph 1023.1mb 67f
8:00pm 21 22 mph 1022.4mb 68f
7:00pm 22 24 mph 1022.2mb 68f
6:00pm 17 18 mph 1022.2mb 68f
5:00pm 18 20 mph 1022mb 68f
4:00pm 17 21 mph 1021.9mb 71f
3:00pm 20 23 mph 1021.8mb 69f
2:00pm 21 22 mph 1022.3mb 67f
1:00pm 18 21 mph 1023.1mb 67f
12:00pm 21 22 mph 1023.9mb 66f
11:00am 20
mph
1024.4mb 64f
10:00am 18 21 mph 1024.2mb 62f
9:00am 18 21 mph 1023.6mb 61f
8:00am 17 20 mph 1023.1mb 60f
7:00am 17 18 mph 1022.9mb 60f
6:00am 21 22 mph 1021.9mb 60f
5:00am 23 26 mph 1021.6mb 59f
4:00am 22 25 mph 1021.7mb 59f
3:00am 21 22 mph 1021.7mb 61f
2:00am 21 22 mph 1022.1mb 61f
1:00am 20 22 mph 1021.9mb 62f
12:00am 22 23 mph 1022.4mb 62f
Wed 01/28 11:00pm 20 21 mph 1022.9mb 62f
10:00pm 21 23 mph 1022.5mb 64f
9:00pm 21 22 mph 1022mb 64f
8:00pm 21 22 mph 1021.9mb 64f
7:00pm 14 17 mph 1021.6mb 65f
6:00pm 13 14 mph 1021.4mb 64f
5:00pm 16 17 mph 1021.1mb 64f
4:00pm 13 14 mph 1020.8mb 63f
3:00pm 14 16 mph 1020.7mb 63f
2:00pm 14 15 mph 1020.9mb 62f
1:00pm 15 16 mph 1021.5mb 62f
12:00pm 18 22 mph 1022.4mb 62f
11:00am 17 18 mph 1022.9mb 61f
10:00am 18 21 mph 1022.5mb 61f
9:00am 22 24 mph 1021.6mb 60f
8:00am 23 26 mph 1020.7mb 61f
7:00am 24 25 mph 1019.7mb 62f
6:00am 28 29 mph 1018.6mb 64f
5:00am 15 16 mph 1018.1mb 68f
4:00am 16 17 mph 1018.3mb 68f
3:00am 13 14 mph 1018.4mb 67f
2:00am 15 17 mph 1018.7mb 67f
1:00am 15 16 mph 1018.9mb 67f
12:00am 15 17 mph 1019.2mb 67f
Tue 01/27 11:00pm 15 17 mph 1019.3mb 67f
10:00pm 15 16 mph 1018.9mb 67f
9:00pm 9 11 mph 1018.8mb 66f
8:00pm 10 11 mph 1018.5mb 65f
7:00pm 13 14 mph 1018.1mb 65f
6:00pm 13 14 mph 1017.9mb 65f
5:00pm 11 13 mph 1017.9mb 65f
4:00pm 14 15 mph 1017.8mb 64f
3:00pm 15 16 mph 1017.6mb 63f
2:00pm 15 17 mph 1017.8mb 63f
1:00pm 11 14 mph 1018.7mb 63f